Delta Ios — SVAK9 — position and weather

sailwx.info

Track history (hours):
 
Tides and Currents Weather Stations Pressure Air Temp Water Temp Dewpoint Dewpoint Depression Visibility Wind Speed Wind Dir Waves Ship Positions

Delta Ios

Last reported at 2016-Jul-09 11:08 UTC. Time now 2016-Jul-24 02:56 UTC.
Position N 27°25' W 015°15'.
Warning: this ship's position is 14 days out of date.

Length 276 m; draft 9 m.

Type: Ship. MMSI: 240821000.

Date/timePositionNaut miles runAvg speedWind from/ knotsBaromVisibWave heightAir tempDewpointWater temp
2016-Jul-09 11:08N 27°25' W 015°15'813.8
2016-Jul-09 10:33N 27°33' W 015°13'1414.2
2016-Jul-09 09:34N 27°47' W 015°09'1414.1
2016-Jul-09 08:34N 28°01' W 015°07'1313.4
2016-Jul-09 07:34N 28°07' W 015°21'4 3.9
2016-Jul-09 06:33N 28°07' W 015°16'19 9.5
2016-Jul-09 04:34N 28°16' W 014°57'1413.8
2016-Jul-09 03:33N 28°29' W 014°50'1413.8
2016-Jul-09 02:33N 28°39' W 014°39'1413.6
2016-Jul-09 01:33N 28°49' W 014°29'1413.8
2016-Jul-09 00:33N 28°60' W 014°19'1413.8
2016-Jul-08 23:33N 29°10' W 014°08'1413.6
2016-Jul-08 22:33N 29°20' W 013°58'1413.5
2016-Jul-08 21:33N 29°30' W 013°48'1413.5
2016-Jul-08 20:33N 29°40' W 013°37'1413.5
2016-Jul-08 19:33N 29°49' W 013°25'1413.6
2016-Jul-08 18:33N 29°57' W 013°13'1414.1
2016-Jul-08 17:33N 30°06' W 012°60'1414.2
2016-Jul-08 16:33N 30°14' W 012°47'1414.2
2016-Jul-08 15:33N 30°22' W 012°32'1414.4
2016-Jul-08 14:33N 30°29' W 012°18'1714.3
2016-Jul-08 13:22N 30°38' W 012°02'43813.7
2016-Jul-07 05:26N 35°55' W 005°59'1112.7
2016-Jul-07 04:33N 35°57' W 005°45'1313.4
2016-Jul-07 03:33N 35°59' W 005°29'7 6.8
2016-Jul-07 02:32N 36°05' W 005°24'0 0.0
2016-Jul-07 01:32N 36°05' W 005°24'0 0.0
2016-Jul-07 00:32N 36°05' W 005°24'0 0.1
2016-Jul-06 23:32N 36°05' W 005°24'0 0.0
2016-Jul-06 22:32N 36°05' W 005°25'0 0.0
2016-Jul-06 21:32N 36°05' W 005°25'0 0.1
2016-Jul-06 20:32N 36°05' W 005°24'0 0.0
2016-Jul-06 19:32N 36°05' W 005°24'0 0.0
2016-Jul-06 18:32N 36°05' W 005°24'0 0.1
2016-Jul-06 17:32N 36°05' W 005°24'0 0.1
2016-Jul-06 16:32N 36°05' W 005°24'0 0.1
2016-Jul-06 15:32N 36°05' W 005°25'0 0.1
2016-Jul-06 14:32N 36°05' W 005°24'0 0.0
2016-Jul-06 13:32N 36°05' W 005°25'0 0.0
2016-Jul-06 12:33N 36°05' W 005°25'6 5.8
2016-Jul-06 11:33N 36°03' W 005°18'21510.2
2016-Jul-05 14:32N 37°18' W 001°07'1111.4
2016-Jul-05 13:32N 37°28' W 001°02'  
2016-Jul-03 08:16N 37°34' W 000°58'0 0.0
2016-Jul-03 06:23N 37°34' W 000°58'2 2.3
2016-Jul-03 05:29N 37°34' W 001°01'2 0.1
2016-Jul-02 10:33N 37°32' W 001°01'7 7.3
2016-Jul-02 09:33N 37°26' W 000°57'1111.1
2016-Jul-02 08:33N 37°18' W 000°46'1212.3
2016-Jul-02 07:33N 37°19' W 000°31'1312.5
2016-Jul-02 06:33N 37°20' W 000°15'2612.6
2016-Jul-02 04:31N 37°23' E 000°17'1212.4
2016-Jul-02 03:33N 37°23' E 000°32'1211.9
2016-Jul-02 02:33N 37°24' E 000°47'1211.9
2016-Jul-02 01:33N 37°25' E 001°02'1312.6
2016-Jul-02 00:33N 37°26' E 001°18'1312.9
2016-Jul-01 23:33N 37°27' E 001°34'1313.1
2016-Jul-01 22:33N 37°28' E 001°50'1312.7
2016-Jul-01 21:33N 37°29' E 002°06'1312.6
2016-Jul-01 20:33N 37°30' E 002°22'1313.0
2016-Jul-01 19:33N 37°31' E 002°38'1313.0
2016-Jul-01 18:33N 37°32' E 002°55'1312.6
2016-Jul-01 17:33N 37°33' E 003°10'1312.6
2016-Jul-01 16:33N 37°35' E 003°26'1212.2
2016-Jul-01 15:33N 37°35' E 003°42'1211.9
2016-Jul-01 14:33N 37°36' E 003°57'1212.5
2016-Jul-01 13:33N 37°37' E 004°12'1312.8
2016-Jul-01 12:33N 37°38' E 004°28'1312.8
2016-Jul-01 11:33N 37°40' E 004°45'20012.5
2016-Jun-30 19:33N 37°53' E 008°57'2512.7
2016-Jun-30 17:33N 37°46' E 009°28'1212.4
2016-Jun-30 16:33N 37°42' E 009°42'1212.3
2016-Jun-30 15:33N 37°40' E 009°58'1212.3
2016-Jun-30 14:34N 37°38' E 010°13'1212.3
2016-Jun-30 13:33N 37°38' E 010°29'1312.6
2016-Jun-30 12:33N 37°36' E 010°45'1212.3
2016-Jun-30 11:33N 37°32' E 010°59'1312.6
2016-Jun-30 10:33N 37°27' E 011°14'1312.4
2016-Jun-30 09:32N 37°20' E 011°27'2412.1
2016-Jun-30 07:32N 37°07' E 011°53'5212.5
2016-Jun-30 03:24N 36°51' E 012°55'1112.2
2016-Jun-30 02:31N 36°48' E 013°07'1212.2
2016-Jun-30 01:33N 36°44' E 013°21'1312.6
2016-Jun-30 00:33N 36°40' E 013°36'1312.8
2016-Jun-29 23:33N 36°36' E 013°51'1312.7
2016-Jun-29 22:33N 36°32' E 014°06'1312.8
2016-Jun-29 21:33N 36°28' E 014°21'1312.6
2016-Jun-29 20:34N 36°24' E 014°36'1312.9
2016-Jun-29 19:33N 36°20' E 014°51'1212.4
2016-Jun-29 18:33N 36°17' E 015°06'1212.4
2016-Jun-29 17:33N 36°13' E 015°21'1312.7
2016-Jun-29 16:33N 36°09' E 015°35'1312.9
2016-Jun-29 15:33N 36°05' E 015°51'1312.9
2016-Jun-29 14:34N 36°01' E 016°06'1312.7
2016-Jun-29 13:33N 35°57' E 016°21'1312.6
2016-Jun-29 12:33N 35°54' E 016°36'1212.4
2016-Jun-29 11:33N 35°50' E 016°50'  
Track history (hours):
 
Tides and Currents Weather Stations Pressure Air Temp Water Temp Dewpoint Dewpoint Depression Visibility Wind Speed Wind Dir Waves Ship Positions

Delta Ios

Last reported at 2016-Jul-09 11:08 UTC. Time now 2016-Jul-24 02:56 UTC.
Position N 27°25' W 015°15'.
Warning: this ship's position is 14 days out of date.

Length 276 m; draft 9 m.

Type: Ship. MMSI: 240821000.

Date/timePositionNaut miles runAvg speedWind from/ knotsBaromVisibWave heightAir tempDewpointWater temp
2016-Jul-09 11:08N 27°25' W 015°15'813.8
2016-Jul-09 10:33N 27°33' W 015°13'1414.2
2016-Jul-09 09:34N 27°47' W 015°09'1414.1
2016-Jul-09 08:34N 28°01' W 015°07'1313.4
2016-Jul-09 07:34N 28°07' W 015°21'4 3.9
2016-Jul-09 06:33N 28°07' W 015°16'19 9.5
2016-Jul-09 04:34N 28°16' W 014°57'1413.8
2016-Jul-09 03:33N 28°29' W 014°50'1413.8
2016-Jul-09 02:33N 28°39' W 014°39'1413.6
2016-Jul-09 01:33N 28°49' W 014°29'1413.8
2016-Jul-09 00:33N 28°60' W 014°19'1413.8
2016-Jul-08 23:33N 29°10' W 014°08'1413.6
2016-Jul-08 22:33N 29°20' W 013°58'1413.5
2016-Jul-08 21:33N 29°30' W 013°48'1413.5
2016-Jul-08 20:33N 29°40' W 013°37'1413.5
2016-Jul-08 19:33N 29°49' W 013°25'1413.6
2016-Jul-08 18:33N 29°57' W 013°13'1414.1
2016-Jul-08 17:33N 30°06' W 012°60'1414.2
2016-Jul-08 16:33N 30°14' W 012°47'1414.2
2016-Jul-08 15:33N 30°22' W 012°32'1414.4
2016-Jul-08 14:33N 30°29' W 012°18'1714.3
2016-Jul-08 13:22N 30°38' W 012°02'43813.7
2016-Jul-07 05:26N 35°55' W 005°59'1112.7
2016-Jul-07 04:33N 35°57' W 005°45'1313.4
2016-Jul-07 03:33N 35°59' W 005°29'7 6.8
2016-Jul-07 02:32N 36°05' W 005°24'0 0.0
2016-Jul-07 01:32N 36°05' W 005°24'0 0.0
2016-Jul-07 00:32N 36°05' W 005°24'0 0.1
2016-Jul-06 23:32N 36°05' W 005°24'0 0.0
2016-Jul-06 22:32N 36°05' W 005°25'0 0.0
2016-Jul-06 21:32N 36°05' W 005°25'0 0.1
2016-Jul-06 20:32N 36°05' W 005°24'0 0.0
2016-Jul-06 19:32N 36°05' W 005°24'0 0.0
2016-Jul-06 18:32N 36°05' W 005°24'0 0.1
2016-Jul-06 17:32N 36°05' W 005°24'0 0.1
2016-Jul-06 16:32N 36°05' W 005°24'0 0.1
2016-Jul-06 15:32N 36°05' W 005°25'0 0.1
2016-Jul-06 14:32N 36°05' W 005°24'0 0.0
2016-Jul-06 13:32N 36°05' W 005°25'0 0.0
2016-Jul-06 12:33N 36°05' W 005°25'6 5.8
2016-Jul-06 11:33N 36°03' W 005°18'21510.2
2016-Jul-05 14:32N 37°18' W 001°07'1111.4
2016-Jul-05 13:32N 37°28' W 001°02'  
2016-Jul-03 08:16N 37°34' W 000°58'0 0.0
2016-Jul-03 06:23N 37°34' W 000°58'2 2.3
2016-Jul-03 05:29N 37°34' W 001°01'2 0.1
2016-Jul-02 10:33N 37°32' W 001°01'7 7.3
2016-Jul-02 09:33N 37°26' W 000°57'1111.1
2016-Jul-02 08:33N 37°18' W 000°46'1212.3
2016-Jul-02 07:33N 37°19' W 000°31'1312.5
2016-Jul-02 06:33N 37°20' W 000°15'2612.6
2016-Jul-02 04:31N 37°23' E 000°17'1212.4
2016-Jul-02 03:33N 37°23' E 000°32'1211.9
2016-Jul-02 02:33N 37°24' E 000°47'1211.9
2016-Jul-02 01:33N 37°25' E 001°02'1312.6
2016-Jul-02 00:33N 37°26' E 001°18'1312.9
2016-Jul-01 23:33N 37°27' E 001°34'1313.1
2016-Jul-01 22:33N 37°28' E 001°50'1312.7
2016-Jul-01 21:33N 37°29' E 002°06'1312.6
2016-Jul-01 20:33N 37°30' E 002°22'1313.0
2016-Jul-01 19:33N 37°31' E 002°38'1313.0
2016-Jul-01 18:33N 37°32' E 002°55'1312.6
2016-Jul-01 17:33N 37°33' E 003°10'1312.6
2016-Jul-01 16:33N 37°35' E 003°26'1212.2
2016-Jul-01 15:33N 37°35' E 003°42'1211.9
2016-Jul-01 14:33N 37°36' E 003°57'1212.5
2016-Jul-01 13:33N 37°37' E 004°12'1312.8
2016-Jul-01 12:33N 37°38' E 004°28'1312.8
2016-Jul-01 11:33N 37°40' E 004°45'20012.5
2016-Jun-30 19:33N 37°53' E 008°57'2512.7
2016-Jun-30 17:33N 37°46' E 009°28'1212.4
2016-Jun-30 16:33N 37°42' E 009°42'1212.3
2016-Jun-30 15:33N 37°40' E 009°58'1212.3
2016-Jun-30 14:34N 37°38' E 010°13'1212.3
2016-Jun-30 13:33N 37°38' E 010°29'1312.6
2016-Jun-30 12:33N 37°36' E 010°45'1212.3
2016-Jun-30 11:33N 37°32' E 010°59'1312.6
2016-Jun-30 10:33N 37°27' E 011°14'1312.4
2016-Jun-30 09:32N 37°20' E 011°27'2412.1
2016-Jun-30 07:32N 37°07' E 011°53'5212.5
2016-Jun-30 03:24N 36°51' E 012°55'1112.2
2016-Jun-30 02:31N 36°48' E 013°07'1212.2
2016-Jun-30 01:33N 36°44' E 013°21'1312.6
2016-Jun-30 00:33N 36°40' E 013°36'1312.8
2016-Jun-29 23:33N 36°36' E 013°51'1312.7
2016-Jun-29 22:33N 36°32' E 014°06'1312.8
2016-Jun-29 21:33N 36°28' E 014°21'1312.6
2016-Jun-29 20:34N 36°24' E 014°36'1312.9
2016-Jun-29 19:33N 36°20' E 014°51'1212.4
2016-Jun-29 18:33N 36°17' E 015°06'1212.4
2016-Jun-29 17:33N 36°13' E 015°21'1312.7
2016-Jun-29 16:33N 36°09' E 015°35'1312.9
2016-Jun-29 15:33N 36°05' E 015°51'1312.9
2016-Jun-29 14:34N 36°01' E 016°06'1312.7
2016-Jun-29 13:33N 35°57' E 016°21'1312.6
2016-Jun-29 12:33N 35°54' E 016°36'1212.4
2016-Jun-29 11:33N 35°50' E 016°50'  

Dump ship's entire track history